sensor_id;sensor_type;location;lat;lon;timestamp;P1;durP1;ratioP1;P2;durP2;ratioP2
5351;SDS011;2698;51.454;6.736;2023-06-14T00:00:08;14.70;;;7.27;;
5351;SDS011;2698;51.454;6.736;2023-06-14T00:02:37;9.30;;;5.70;;
5351;SDS011;2698;51.454;6.736;2023-06-14T00:05:04;9.07;;;5.80;;
5351;SDS011;2698;51.454;6.736;2023-06-14T00:07:33;11.83;;;7.07;;
5351;SDS011;2698;51.454;6.736;2023-06-14T00:10:01;23.17;;;7.73;;
5351;SDS011;2698;51.454;6.736;2023-06-14T00:12:28;29.17;;;8.20;;
5351;SDS011;2698;51.454;6.736;2023-06-14T00:14:55;22.67;;;8.40;;
5351;SDS011;2698;51.454;6.736;2023-06-14T00:17:24;16.47;;;7.30;;
5351;SDS011;2698;51.454;6.736;2023-06-14T00:19:55;13.57;;;6.70;;
5351;SDS011;2698;51.454;6.736;2023-06-14T00:22:22;18.40;;;6.93;;
5351;SDS011;2698;51.454;6.736;2023-06-14T00:24:50;26.87;;;8.07;;
5351;SDS011;2698;51.454;6.736;2023-06-14T00:27:17;27.23;;;7.90;;
5351;SDS011;2698;51.454;6.736;2023-06-14T00:29:44;18.10;;;7.60;;
5351;SDS011;2698;51.454;6.736;2023-06-14T00:32:11;18.43;;;6.30;;
5351;SDS011;2698;51.454;6.736;2023-06-14T00:34:40;17.23;;;7.50;;
5351;SDS011;2698;51.454;6.736;2023-06-14T00:37:07;16.00;;;7.13;;
5351;SDS011;2698;51.454;6.736;2023-06-14T00:39:34;13.00;;;6.40;;
5351;SDS011;2698;51.454;6.736;2023-06-14T00:42:01;17.53;;;7.53;;
5351;SDS011;2698;51.454;6.736;2023-06-14T00:44:29;21.23;;;8.30;;
5351;SDS011;2698;51.454;6.736;2023-06-14T00:46:56;15.23;;;7.00;;
5351;SDS011;2698;51.454;6.736;2023-06-14T00:49:23;12.00;;;6.90;;
5351;SDS011;2698;51.454;6.736;2023-06-14T00:51:52;23.00;;;7.37;;
5351;SDS011;2698;51.454;6.736;2023-06-14T00:54:19;18.20;;;7.20;;
5351;SDS011;2698;51.454;6.736;2023-06-14T00:56:46;12.00;;;6.80;;
5351;SDS011;2698;51.454;6.736;2023-06-14T00:59:13;17.37;;;7.93;;
5351;SDS011;2698;51.454;6.736;2023-06-14T01:01:40;9.87;;;6.70;;
5351;SDS011;2698;51.454;6.736;2023-06-14T01:04:07;13.70;;;6.70;;
5351;SDS011;2698;51.454;6.736;2023-06-14T01:06:37;15.60;;;6.80;;
5351;SDS011;2698;51.454;6.736;2023-06-14T01:09:09;19.43;;;8.23;;
5351;SDS011;2698;51.454;6.736;2023-06-14T01:11:40;12.27;;;6.43;;
5351;SDS011;2698;51.454;6.736;2023-06-14T01:14:08;26.67;;;7.47;;
5351;SDS011;2698;51.454;6.736;2023-06-14T01:16:37;22.13;;;7.20;;
5351;SDS011;2698;51.454;6.736;2023-06-14T01:19:05;19.07;;;7.70;;
5351;SDS011;2698;51.454;6.736;2023-06-14T01:21:33;21.40;;;7.23;;
5351;SDS011;2698;51.454;6.736;2023-06-14T01:24:08;12.73;;;6.87;;
5351;SDS011;2698;51.454;6.736;2023-06-14T01:26:36;11.00;;;6.67;;
5351;SDS011;2698;51.454;6.736;2023-06-14T01:29:03;12.40;;;6.57;;
5351;SDS011;2698;51.454;6.736;2023-06-14T01:31:31;34.20;;;8.80;;
5351;SDS011;2698;51.454;6.736;2023-06-14T01:34:06;25.97;;;7.67;;
5351;SDS011;2698;51.454;6.736;2023-06-14T01:36:33;33.83;;;7.10;;
5351;SDS011;2698;51.454;6.736;2023-06-14T01:39:02;21.93;;;7.70;;
5351;SDS011;2698;51.454;6.736;2023-06-14T01:41:31;16.33;;;7.47;;
5351;SDS011;2698;51.454;6.736;2023-06-14T01:43:59;24.43;;;6.43;;
5351;SDS011;2698;51.454;6.736;2023-06-14T01:46:27;20.57;;;7.03;;
5351;SDS011;2698;51.454;6.736;2023-06-14T01:48:54;24.07;;;7.70;;
5351;SDS011;2698;51.454;6.736;2023-06-14T01:51:22;15.03;;;6.53;;
5351;SDS011;2698;51.454;6.736;2023-06-14T01:53:49;21.13;;;7.90;;
5351;SDS011;2698;51.454;6.736;2023-06-14T01:56:16;24.53;;;7.40;;
5351;SDS011;2698;51.454;6.736;2023-06-14T01:58:44;28.83;;;7.10;;
5351;SDS011;2698;51.454;6.736;2023-06-14T02:01:11;46.30;;;8.70;;
5351;SDS011;2698;51.454;6.736;2023-06-14T02:03:41;33.60;;;8.27;;
5351;SDS011;2698;51.454;6.736;2023-06-14T02:06:09;30.50;;;7.80;;
5351;SDS011;2698;51.454;6.736;2023-06-14T02:08:37;27.97;;;8.40;;
5351;SDS011;2698;51.454;6.736;2023-06-14T02:11:05;10.40;;;7.40;;
5351;SDS011;2698;51.454;6.736;2023-06-14T02:13:32;21.37;;;6.00;;
5351;SDS011;2698;51.454;6.736;2023-06-14T02:16:00;25.60;;;7.67;;
5351;SDS011;2698;51.454;6.736;2023-06-14T02:18:28;14.57;;;6.00;;
5351;SDS011;2698;51.454;6.736;2023-06-14T02:20:55;12.90;;;6.70;;
5351;SDS011;2698;51.454;6.736;2023-06-14T02:23:22;24.77;;;6.57;;
5351;SDS011;2698;51.454;6.736;2023-06-14T02:25:49;19.87;;;7.30;;
5351;SDS011;2698;51.454;6.736;2023-06-14T02:28:16;16.33;;;6.73;;
5351;SDS011;2698;51.454;6.736;2023-06-14T02:30:43;23.27;;;6.27;;
5351;SDS011;2698;51.454;6.736;2023-06-14T02:33:12;10.93;;;6.07;;
5351;SDS011;2698;51.454;6.736;2023-06-14T02:35:39;16.47;;;7.33;;
5351;SDS011;2698;51.454;6.736;2023-06-14T02:38:06;23.87;;;6.80;;
5351;SDS011;2698;51.454;6.736;2023-06-14T02:40:33;11.70;;;6.40;;
5351;SDS011;2698;51.454;6.736;2023-06-14T02:43:00;18.20;;;7.60;;
5351;SDS011;2698;51.454;6.736;2023-06-14T02:45:27;18.70;;;6.30;;
5351;SDS011;2698;51.454;6.736;2023-06-14T02:47:54;27.93;;;7.20;;
5351;SDS011;2698;51.454;6.736;2023-06-14T02:50:23;25.13;;;7.13;;
5351;SDS011;2698;51.454;6.736;2023-06-14T02:52:50;29.50;;;7.40;;
5351;SDS011;2698;51.454;6.736;2023-06-14T02:55:20;13.07;;;6.63;;
5351;SDS011;2698;51.454;6.736;2023-06-14T02:57:48;11.90;;;5.97;;
5351;SDS011;2698;51.454;6.736;2023-06-14T03:00:15;16.60;;;7.47;;
5351;SDS011;2698;51.454;6.736;2023-06-14T03:02:42;12.40;;;6.10;;
5351;SDS011;2698;51.454;6.736;2023-06-14T03:05:09;19.30;;;6.90;;
5351;SDS011;2698;51.454;6.736;2023-06-14T03:07:38;18.30;;;6.40;;
5351;SDS011;2698;51.454;6.736;2023-06-14T03:10:07;8.80;;;6.00;;
5351;SDS011;2698;51.454;6.736;2023-06-14T03:12:35;15.20;;;6.10;;
5351;SDS011;2698;51.454;6.736;2023-06-14T03:15:02;15.67;;;6.33;;
5351;SDS011;2698;51.454;6.736;2023-06-14T03:17:30;36.93;;;7.07;;
5351;SDS011;2698;51.454;6.736;2023-06-14T03:19:58;28.17;;;7.33;;
5351;SDS011;2698;51.454;6.736;2023-06-14T03:22:26;24.23;;;7.63;;
5351;SDS011;2698;51.454;6.736;2023-06-14T03:24:54;22.73;;;7.93;;
5351;SDS011;2698;51.454;6.736;2023-06-14T03:27:22;30.53;;;7.33;;
5351;SDS011;2698;51.454;6.736;2023-06-14T03:29:49;51.67;;;7.50;;
5351;SDS011;2698;51.454;6.736;2023-06-14T03:32:16;27.33;;;7.63;;
5351;SDS011;2698;51.454;6.736;2023-06-14T03:34:43;46.80;;;6.70;;
5351;SDS011;2698;51.454;6.736;2023-06-14T03:37:11;34.57;;;7.70;;
5351;SDS011;2698;51.454;6.736;2023-06-14T03:39:38;47.87;;;7.17;;
5351;SDS011;2698;51.454;6.736;2023-06-14T03:42:12;24.87;;;7.13;;
5351;SDS011;2698;51.454;6.736;2023-06-14T03:44:39;50.77;;;8.30;;
5351;SDS011;2698;51.454;6.736;2023-06-14T03:47:06;39.90;;;7.50;;
5351;SDS011;2698;51.454;6.736;2023-06-14T03:49:34;20.70;;;6.13;;
5351;SDS011;2698;51.454;6.736;2023-06-14T03:52:02;23.47;;;6.73;;
5351;SDS011;2698;51.454;6.736;2023-06-14T03:54:29;26.30;;;6.83;;
5351;SDS011;2698;51.454;6.736;2023-06-14T03:56:57;24.27;;;6.43;;
5351;SDS011;2698;51.454;6.736;2023-06-14T03:59:26;16.57;;;6.97;;
5351;SDS011;2698;51.454;6.736;2023-06-14T04:01:53;18.63;;;6.97;;
5351;SDS011;2698;51.454;6.736;2023-06-14T04:04:20;28.77;;;7.17;;
5351;SDS011;2698;51.454;6.736;2023-06-14T04:06:53;26.93;;;8.60;;
5351;SDS011;2698;51.454;6.736;2023-06-14T04:09:21;24.73;;;6.70;;
5351;SDS011;2698;51.454;6.736;2023-06-14T04:11:49;44.47;;;6.50;;
5351;SDS011;2698;51.454;6.736;2023-06-14T04:14:16;34.20;;;7.23;;
5351;SDS011;2698;51.454;6.736;2023-06-14T04:16:45;21.77;;;7.33;;
5351;SDS011;2698;51.454;6.736;2023-06-14T04:19:12;32.27;;;8.30;;
5351;SDS011;2698;51.454;6.736;2023-06-14T04:21:39;25.50;;;6.37;;
5351;SDS011;2698;51.454;6.736;2023-06-14T04:24:06;16.23;;;6.20;;
5351;SDS011;2698;51.454;6.736;2023-06-14T04:26:38;16.27;;;6.37;;
5351;SDS011;2698;51.454;6.736;2023-06-14T04:29:06;24.53;;;7.50;;
5351;SDS011;2698;51.454;6.736;2023-06-14T04:31:33;19.43;;;5.03;;
5351;SDS011;2698;51.454;6.736;2023-06-14T04:34:04;15.57;;;5.30;;
5351;SDS011;2698;51.454;6.736;2023-06-14T04:36:31;17.23;;;5.47;;
5351;SDS011;2698;51.454;6.736;2023-06-14T04:38:59;19.30;;;5.80;;
5351;SDS011;2698;51.454;6.736;2023-06-14T04:41:28;19.67;;;5.07;;
5351;SDS011;2698;51.454;6.736;2023-06-14T04:43:56;19.53;;;6.50;;
5351;SDS011;2698;51.454;6.736;2023-06-14T04:46:26;22.57;;;5.60;;
5351;SDS011;2698;51.454;6.736;2023-06-14T04:48:53;24.30;;;5.87;;
5351;SDS011;2698;51.454;6.736;2023-06-14T04:51:23;22.33;;;6.13;;
5351;SDS011;2698;51.454;6.736;2023-06-14T04:53:54;20.80;;;5.73;;
5351;SDS011;2698;51.454;6.736;2023-06-14T04:56:21;26.77;;;5.37;;
5351;SDS011;2698;51.454;6.736;2023-06-14T04:58:50;11.33;;;5.70;;
5351;SDS011;2698;51.454;6.736;2023-06-14T05:01:17;17.00;;;5.57;;
5351;SDS011;2698;51.454;6.736;2023-06-14T05:03:46;16.50;;;5.17;;
5351;SDS011;2698;51.454;6.736;2023-06-14T05:06:14;20.40;;;5.10;;
5351;SDS011;2698;51.454;6.736;2023-06-14T05:08:43;31.00;;;5.90;;
5351;SDS011;2698;51.454;6.736;2023-06-14T05:11:10;20.13;;;5.90;;
5351;SDS011;2698;51.454;6.736;2023-06-14T05:13:37;20.23;;;5.37;;
5351;SDS011;2698;51.454;6.736;2023-06-14T05:16:06;21.57;;;5.97;;
5351;SDS011;2698;51.454;6.736;2023-06-14T05:18:33;12.73;;;5.07;;
5351;SDS011;2698;51.454;6.736;2023-06-14T05:21:00;20.57;;;5.17;;
5351;SDS011;2698;51.454;6.736;2023-06-14T05:23:29;12.83;;;4.67;;
5351;SDS011;2698;51.454;6.736;2023-06-14T05:25:57;15.07;;;4.30;;
5351;SDS011;2698;51.454;6.736;2023-06-14T05:28:25;14.93;;;4.80;;
5351;SDS011;2698;51.454;6.736;2023-06-14T05:30:52;18.33;;;5.57;;
5351;SDS011;2698;51.454;6.736;2023-06-14T05:33:19;9.73;;;3.20;;
5351;SDS011;2698;51.454;6.736;2023-06-14T05:35:46;10.73;;;4.40;;
5351;SDS011;2698;51.454;6.736;2023-06-14T05:38:13;21.50;;;5.43;;
5351;SDS011;2698;51.454;6.736;2023-06-14T05:40:40;10.07;;;3.90;;
5351;SDS011;2698;51.454;6.736;2023-06-14T05:43:09;7.97;;;5.07;;
5351;SDS011;2698;51.454;6.736;2023-06-14T05:45:36;6.43;;;3.80;;
5351;SDS011;2698;51.454;6.736;2023-06-14T05:48:03;20.43;;;5.53;;
5351;SDS011;2698;51.454;6.736;2023-06-14T05:50:30;10.90;;;4.20;;
5351;SDS011;2698;51.454;6.736;2023-06-14T05:52:57;24.40;;;4.90;;
5351;SDS011;2698;51.454;6.736;2023-06-14T05:55:25;7.80;;;4.83;;
5351;SDS011;2698;51.454;6.736;2023-06-14T05:57:52;26.00;;;4.80;;
5351;SDS011;2698;51.454;6.736;2023-06-14T06:00:22;25.30;;;4.87;;
5351;SDS011;2698;51.454;6.736;2023-06-14T06:02:49;15.13;;;4.70;;
5351;SDS011;2698;51.454;6.736;2023-06-14T06:05:16;15.10;;;5.80;;
5351;SDS011;2698;51.454;6.736;2023-06-14T06:07:43;16.73;;;5.33;;
5351;SDS011;2698;51.454;6.736;2023-06-14T06:10:10;18.70;;;6.07;;
5351;SDS011;2698;51.454;6.736;2023-06-14T06:12:37;5.53;;;4.33;;
5351;SDS011;2698;51.454;6.736;2023-06-14T06:15:05;11.90;;;4.50;;
5351;SDS011;2698;51.454;6.736;2023-06-14T06:17:34;14.90;;;5.10;;
5351;SDS011;2698;51.454;6.736;2023-06-14T06:20:01;16.40;;;4.57;;
5351;SDS011;2698;51.454;6.736;2023-06-14T06:22:28;17.80;;;4.50;;
5351;SDS011;2698;51.454;6.736;2023-06-14T06:24:55;5.37;;;4.10;;
5351;SDS011;2698;51.454;6.736;2023-06-14T06:27:22;10.80;;;3.77;;
5351;SDS011;2698;51.454;6.736;2023-06-14T06:29:49;20.87;;;5.30;;
5351;SDS011;2698;51.454;6.736;2023-06-14T06:32:16;8.80;;;4.30;;
5351;SDS011;2698;51.454;6.736;2023-06-14T06:34:45;6.20;;;4.10;;
5351;SDS011;2698;51.454;6.736;2023-06-14T06:37:12;8.30;;;4.33;;
5351;SDS011;2698;51.454;6.736;2023-06-14T06:39:40;13.17;;;4.43;;
5351;SDS011;2698;51.454;6.736;2023-06-14T06:42:08;16.83;;;4.37;;
5351;SDS011;2698;51.454;6.736;2023-06-14T06:44:35;15.40;;;3.80;;
5351;SDS011;2698;51.454;6.736;2023-06-14T06:47:03;11.83;;;4.10;;
5351;SDS011;2698;51.454;6.736;2023-06-14T06:49:30;9.73;;;3.97;;
5351;SDS011;2698;51.454;6.736;2023-06-14T06:52:02;15.37;;;4.50;;
5351;SDS011;2698;51.454;6.736;2023-06-14T06:54:29;11.30;;;3.40;;
5351;SDS011;2698;51.454;6.736;2023-06-14T06:56:56;7.50;;;2.73;;
5351;SDS011;2698;51.454;6.736;2023-06-14T06:59:24;5.50;;;3.20;;
5351;SDS011;2698;51.454;6.736;2023-06-14T07:01:51;19.77;;;3.67;;
5351;SDS011;2698;51.454;6.736;2023-06-14T07:04:18;9.03;;;3.20;;
5351;SDS011;2698;51.454;6.736;2023-06-14T07:06:45;8.83;;;3.40;;
5351;SDS011;2698;51.454;6.736;2023-06-14T07:09:14;4.93;;;3.80;;
5351;SDS011;2698;51.454;6.736;2023-06-14T07:11:42;9.20;;;5.10;;
5351;SDS011;2698;51.454;6.736;2023-06-14T07:14:10;5.50;;;3.07;;
5351;SDS011;2698;51.454;6.736;2023-06-14T07:16:37;9.20;;;2.80;;
5351;SDS011;2698;51.454;6.736;2023-06-14T07:19:04;10.27;;;2.60;;
5351;SDS011;2698;51.454;6.736;2023-06-14T07:21:32;25.23;;;3.03;;
5351;SDS011;2698;51.454;6.736;2023-06-14T07:23:59;16.10;;;2.77;;
5351;SDS011;2698;51.454;6.736;2023-06-14T07:26:27;10.53;;;2.70;;
5351;SDS011;2698;51.454;6.736;2023-06-14T07:28:54;11.50;;;2.77;;
5351;SDS011;2698;51.454;6.736;2023-06-14T07:31:22;3.40;;;2.10;;
5351;SDS011;2698;51.454;6.736;2023-06-14T07:33:49;6.03;;;2.00;;
5351;SDS011;2698;51.454;6.736;2023-06-14T07:36:16;18.27;;;3.43;;
5351;SDS011;2698;51.454;6.736;2023-06-14T07:38:43;26.63;;;4.10;;
5351;SDS011;2698;51.454;6.736;2023-06-14T07:41:10;10.73;;;3.77;;
5351;SDS011;2698;51.454;6.736;2023-06-14T07:43:39;6.67;;;2.90;;
5351;SDS011;2698;51.454;6.736;2023-06-14T07:46:06;7.80;;;2.57;;
5351;SDS011;2698;51.454;6.736;2023-06-14T07:48:34;2.30;;;2.10;;
5351;SDS011;2698;51.454;6.736;2023-06-14T07:51:01;10.70;;;2.27;;
5351;SDS011;2698;51.454;6.736;2023-06-14T07:53:28;7.80;;;3.37;;
5351;SDS011;2698;51.454;6.736;2023-06-14T07:55:56;10.70;;;3.13;;
5351;SDS011;2698;51.454;6.736;2023-06-14T07:58:23;19.23;;;3.50;;
5351;SDS011;2698;51.454;6.736;2023-06-14T08:00:52;11.30;;;2.47;;
5351;SDS011;2698;51.454;6.736;2023-06-14T08:03:19;6.10;;;2.70;;
5351;SDS011;2698;51.454;6.736;2023-06-14T08:05:47;4.90;;;2.67;;
5351;SDS011;2698;51.454;6.736;2023-06-14T08:08:15;13.13;;;3.60;;
5351;SDS011;2698;51.454;6.736;2023-06-14T08:10:42;9.30;;;3.70;;
5351;SDS011;2698;51.454;6.736;2023-06-14T08:13:09;11.00;;;2.80;;
5351;SDS011;2698;51.454;6.736;2023-06-14T08:15:37;8.20;;;3.50;;
5351;SDS011;2698;51.454;6.736;2023-06-14T08:18:05;12.37;;;3.33;;
5351;SDS011;2698;51.454;6.736;2023-06-14T08:20:32;9.77;;;3.60;;
5351;SDS011;2698;51.454;6.736;2023-06-14T08:23:00;7.40;;;3.17;;
5351;SDS011;2698;51.454;6.736;2023-06-14T08:25:27;15.70;;;3.60;;
5351;SDS011;2698;51.454;6.736;2023-06-14T08:27:54;13.20;;;3.40;;
5351;SDS011;2698;51.454;6.736;2023-06-14T08:30:21;3.20;;;2.90;;
5351;SDS011;2698;51.454;6.736;2023-06-14T08:32:48;7.10;;;3.20;;
5351;SDS011;2698;51.454;6.736;2023-06-14T08:35:18;15.97;;;3.73;;
5351;SDS011;2698;51.454;6.736;2023-06-14T08:37:45;20.07;;;2.87;;
5351;SDS011;2698;51.454;6.736;2023-06-14T08:40:18;7.40;;;2.93;;
5351;SDS011;2698;51.454;6.736;2023-06-14T08:42:46;7.20;;;3.67;;
5351;SDS011;2698;51.454;6.736;2023-06-14T08:45:14;14.10;;;4.13;;
5351;SDS011;2698;51.454;6.736;2023-06-14T08:47:41;17.30;;;3.40;;
5351;SDS011;2698;51.454;6.736;2023-06-14T08:50:09;4.60;;;3.10;;
5351;SDS011;2698;51.454;6.736;2023-06-14T08:52:38;5.57;;;3.60;;
5351;SDS011;2698;51.454;6.736;2023-06-14T08:55:10;8.73;;;3.30;;
5351;SDS011;2698;51.454;6.736;2023-06-14T08:57:38;4.67;;;2.50;;
5351;SDS011;2698;51.454;6.736;2023-06-14T09:00:06;9.03;;;3.27;;
5351;SDS011;2698;51.454;6.736;2023-06-14T09:02:37;11.17;;;2.67;;
5351;SDS011;2698;51.454;6.736;2023-06-14T09:05:08;3.37;;;3.07;;
5351;SDS011;2698;51.454;6.736;2023-06-14T09:07:39;18.00;;;4.00;;
5351;SDS011;2698;51.454;6.736;2023-06-14T09:10:07;5.70;;;3.20;;
5351;SDS011;2698;51.454;6.736;2023-06-14T09:12:35;33.00;;;3.43;;
5351;SDS011;2698;51.454;6.736;2023-06-14T09:15:02;5.83;;;2.90;;
5351;SDS011;2698;51.454;6.736;2023-06-14T09:17:32;15.37;;;3.27;;
5351;SDS011;2698;51.454;6.736;2023-06-14T09:20:00;11.77;;;4.67;;
5351;SDS011;2698;51.454;6.736;2023-06-14T09:22:30;10.70;;;3.77;;
5351;SDS011;2698;51.454;6.736;2023-06-14T09:24:59;19.00;;;3.80;;
5351;SDS011;2698;51.454;6.736;2023-06-14T09:27:26;8.80;;;3.30;;
5351;SDS011;2698;51.454;6.736;2023-06-14T09:29:53;5.80;;;3.03;;
5351;SDS011;2698;51.454;6.736;2023-06-14T09:32:21;13.87;;;3.43;;
5351;SDS011;2698;51.454;6.736;2023-06-14T09:34:48;7.93;;;3.20;;
5351;SDS011;2698;51.454;6.736;2023-06-14T09:37:26;2.47;;;2.27;;
5351;SDS011;2698;51.454;6.736;2023-06-14T09:39:53;5.00;;;2.70;;
5351;SDS011;2698;51.454;6.736;2023-06-14T09:42:21;3.23;;;2.93;;
5351;SDS011;2698;51.454;6.736;2023-06-14T09:44:51;6.37;;;2.30;;
5351;SDS011;2698;51.454;6.736;2023-06-14T09:47:18;5.63;;;2.67;;
5351;SDS011;2698;51.454;6.736;2023-06-14T09:49:46;4.33;;;2.50;;
5351;SDS011;2698;51.454;6.736;2023-06-14T09:52:14;4.47;;;2.70;;
5351;SDS011;2698;51.454;6.736;2023-06-14T09:54:42;12.80;;;3.30;;
5351;SDS011;2698;51.454;6.736;2023-06-14T09:57:09;21.63;;;2.90;;
5351;SDS011;2698;51.454;6.736;2023-06-14T09:59:39;3.93;;;2.40;;
5351;SDS011;2698;51.454;6.736;2023-06-14T10:02:10;9.67;;;2.43;;
5351;SDS011;2698;51.454;6.736;2023-06-14T10:04:39;8.73;;;2.40;;
5351;SDS011;2698;51.454;6.736;2023-06-14T10:07:08;12.00;;;2.73;;
5351;SDS011;2698;51.454;6.736;2023-06-14T10:09:35;8.77;;;2.57;;
5351;SDS011;2698;51.454;6.736;2023-06-14T10:12:04;7.40;;;2.40;;
5351;SDS011;2698;51.454;6.736;2023-06-14T10:14:32;7.97;;;3.00;;
5351;SDS011;2698;51.454;6.736;2023-06-14T10:17:02;16.63;;;2.43;;
5351;SDS011;2698;51.454;6.736;2023-06-14T10:19:36;2.30;;;1.90;;
5351;SDS011;2698;51.454;6.736;2023-06-14T10:22:04;10.43;;;2.20;;
5351;SDS011;2698;51.454;6.736;2023-06-14T10:24:33;3.90;;;2.60;;
5351;SDS011;2698;51.454;6.736;2023-06-14T10:27:02;2.80;;;1.80;;
5351;SDS011;2698;51.454;6.736;2023-06-14T10:29:30;11.43;;;2.67;;
5351;SDS011;2698;51.454;6.736;2023-06-14T10:31:58;12.57;;;3.10;;
5351;SDS011;2698;51.454;6.736;2023-06-14T10:34:27;13.93;;;2.67;;
5351;SDS011;2698;51.454;6.736;2023-06-14T10:37:02;9.90;;;2.93;;
5351;SDS011;2698;51.454;6.736;2023-06-14T10:39:29;8.43;;;3.00;;
5351;SDS011;2698;51.454;6.736;2023-06-14T10:41:57;6.80;;;2.27;;
5351;SDS011;2698;51.454;6.736;2023-06-14T10:44:38;5.40;;;2.20;;
5351;SDS011;2698;51.454;6.736;2023-06-14T10:47:09;12.87;;;2.20;;
5351;SDS011;2698;51.454;6.736;2023-06-14T10:49:40;6.00;;;2.27;;
5351;SDS011;2698;51.454;6.736;2023-06-14T10:52:08;11.53;;;2.30;;
5351;SDS011;2698;51.454;6.736;2023-06-14T10:57:29;16.80;;;2.20;;
5351;SDS011;2698;51.454;6.736;2023-06-14T10:59:57;5.30;;;2.00;;
5351;SDS011;2698;51.454;6.736;2023-06-14T11:02:36;9.20;;;1.83;;
5351;SDS011;2698;51.454;6.736;2023-06-14T11:05:13;2.30;;;1.63;;
5351;SDS011;2698;51.454;6.736;2023-06-14T11:07:43;4.30;;;1.47;;
5351;SDS011;2698;51.454;6.736;2023-06-14T11:10:17;2.53;;;1.83;;
5351;SDS011;2698;51.454;6.736;2023-06-14T11:12:49;7.53;;;1.80;;
5351;SDS011;2698;51.454;6.736;2023-06-14T11:15:17;2.93;;;1.27;;
5351;SDS011;2698;51.454;6.736;2023-06-14T11:17:54;7.83;;;1.70;;
5351;SDS011;2698;51.454;6.736;2023-06-14T11:20:25;6.83;;;1.73;;
5351;SDS011;2698;51.454;6.736;2023-06-14T11:22:53;8.93;;;2.10;;
5351;SDS011;2698;51.454;6.736;2023-06-14T11:25:20;10.03;;;3.50;;
5351;SDS011;2698;51.454;6.736;2023-06-14T11:27:48;5.07;;;2.17;;
5351;SDS011;2698;51.454;6.736;2023-06-14T11:30:16;6.37;;;2.00;;
5351;SDS011;2698;51.454;6.736;2023-06-14T11:32:45;5.23;;;2.10;;
5351;SDS011;2698;51.454;6.736;2023-06-14T11:35:13;11.70;;;2.53;;
5351;SDS011;2698;51.454;6.736;2023-06-14T11:37:42;11.80;;;2.63;;
5351;SDS011;2698;51.454;6.736;2023-06-14T11:40:11;4.60;;;2.47;;
5351;SDS011;2698;51.454;6.736;2023-06-14T11:42:39;15.00;;;3.10;;
5351;SDS011;2698;51.454;6.736;2023-06-14T11:45:07;6.37;;;2.17;;
5351;SDS011;2698;51.454;6.736;2023-06-14T11:47:35;15.20;;;2.17;;
5351;SDS011;2698;51.454;6.736;2023-06-14T11:50:02;6.00;;;2.37;;
5351;SDS011;2698;51.454;6.736;2023-06-14T11:52:30;17.80;;;3.23;;
5351;SDS011;2698;51.454;6.736;2023-06-14T11:54:58;10.13;;;3.20;;
5351;SDS011;2698;51.454;6.736;2023-06-14T11:57:26;4.40;;;2.00;;
5351;SDS011;2698;51.454;6.736;2023-06-14T11:59:54;1.70;;;1.70;;
5351;SDS011;2698;51.454;6.736;2023-06-14T12:02:22;4.80;;;2.70;;
5351;SDS011;2698;51.454;6.736;2023-06-14T12:04:50;2.93;;;2.10;;
5351;SDS011;2698;51.454;6.736;2023-06-14T12:07:17;2.10;;;1.73;;
5351;SDS011;2698;51.454;6.736;2023-06-14T12:12:29;11.07;;;2.80;;
5351;SDS011;2698;51.454;6.736;2023-06-14T12:14:56;6.53;;;2.10;;
5351;SDS011;2698;51.454;6.736;2023-06-14T12:17:23;7.77;;;2.57;;
5351;SDS011;2698;51.454;6.736;2023-06-14T12:19:53;2.37;;;2.00;;
5351;SDS011;2698;51.454;6.736;2023-06-14T12:22:20;4.60;;;2.10;;
5351;SDS011;2698;51.454;6.736;2023-06-14T12:24:48;7.73;;;2.50;;
5351;SDS011;2698;51.454;6.736;2023-06-14T12:27:15;4.30;;;2.30;;
5351;SDS011;2698;51.454;6.736;2023-06-14T12:29:46;6.40;;;2.33;;
5351;SDS011;2698;51.454;6.736;2023-06-14T12:32:13;18.20;;;2.87;;
5351;SDS011;2698;51.454;6.736;2023-06-14T12:34:40;7.10;;;2.27;;
5351;SDS011;2698;51.454;6.736;2023-06-14T12:37:07;8.93;;;2.23;;
5351;SDS011;2698;51.454;6.736;2023-06-14T12:39:35;7.47;;;3.33;;
5351;SDS011;2698;51.454;6.736;2023-06-14T12:42:04;7.83;;;2.50;;
5351;SDS011;2698;51.454;6.736;2023-06-14T12:44:32;2.33;;;2.23;;
5351;SDS011;2698;51.454;6.736;2023-06-14T12:47:06;8.20;;;2.97;;
5351;SDS011;2698;51.454;6.736;2023-06-14T12:49:33;3.20;;;2.03;;
5351;SDS011;2698;51.454;6.736;2023-06-14T12:52:01;2.13;;;2.00;;
5351;SDS011;2698;51.454;6.736;2023-06-14T12:54:30;9.00;;;2.73;;
5351;SDS011;2698;51.454;6.736;2023-06-14T12:56:57;12.03;;;2.37;;
5351;SDS011;2698;51.454;6.736;2023-06-14T12:59:24;4.20;;;2.27;;
5351;SDS011;2698;51.454;6.736;2023-06-14T13:01:57;7.00;;;2.13;;
5351;SDS011;2698;51.454;6.736;2023-06-14T13:04:26;3.70;;;1.80;;
5351;SDS011;2698;51.454;6.736;2023-06-14T13:06:53;7.83;;;2.47;;
5351;SDS011;2698;51.454;6.736;2023-06-14T13:09:20;8.80;;;2.80;;
5351;SDS011;2698;51.454;6.736;2023-06-14T13:11:47;5.17;;;3.27;;
5351;SDS011;2698;51.454;6.736;2023-06-14T13:14:14;6.00;;;3.40;;
5351;SDS011;2698;51.454;6.736;2023-06-14T13:16:41;11.87;;;2.93;;
5351;SDS011;2698;51.454;6.736;2023-06-14T13:19:08;5.90;;;2.50;;
5351;SDS011;2698;51.454;6.736;2023-06-14T13:21:36;5.83;;;2.40;;
5351;SDS011;2698;51.454;6.736;2023-06-14T13:24:04;5.43;;;3.50;;
5351;SDS011;2698;51.454;6.736;2023-06-14T13:26:31;6.20;;;2.57;;
5351;SDS011;2698;51.454;6.736;2023-06-14T13:28:59;8.07;;;3.40;;
5351;SDS011;2698;51.454;6.736;2023-06-14T13:31:26;13.53;;;3.27;;
5351;SDS011;2698;51.454;6.736;2023-06-14T13:33:53;17.73;;;2.80;;
5351;SDS011;2698;51.454;6.736;2023-06-14T13:36:20;6.60;;;2.67;;
5351;SDS011;2698;51.454;6.736;2023-06-14T13:38:48;22.20;;;4.00;;
5351;SDS011;2698;51.454;6.736;2023-06-14T13:41:16;5.93;;;2.63;;
5351;SDS011;2698;51.454;6.736;2023-06-14T13:43:43;4.50;;;2.90;;
5351;SDS011;2698;51.454;6.736;2023-06-14T13:46:11;3.63;;;2.60;;
5351;SDS011;2698;51.454;6.736;2023-06-14T13:48:38;2.80;;;2.60;;
5351;SDS011;2698;51.454;6.736;2023-06-14T13:51:05;6.50;;;3.07;;
5351;SDS011;2698;51.454;6.736;2023-06-14T13:53:33;6.10;;;3.20;;
5351;SDS011;2698;51.454;6.736;2023-06-14T13:56:05;14.47;;;3.50;;
5351;SDS011;2698;51.454;6.736;2023-06-14T13:58:32;6.13;;;3.50;;
5351;SDS011;2698;51.454;6.736;2023-06-14T14:01:00;5.43;;;3.33;;
5351;SDS011;2698;51.454;6.736;2023-06-14T14:03:27;14.93;;;3.60;;
5351;SDS011;2698;51.454;6.736;2023-06-14T14:05:54;7.00;;;2.87;;
5351;SDS011;2698;51.454;6.736;2023-06-14T14:08:21;23.50;;;3.63;;
5351;SDS011;2698;51.454;6.736;2023-06-14T14:10:49;9.83;;;3.20;;
5351;SDS011;2698;51.454;6.736;2023-06-14T14:13:18;12.80;;;4.33;;
5351;SDS011;2698;51.454;6.736;2023-06-14T14:15:46;4.53;;;3.17;;
5351;SDS011;2698;51.454;6.736;2023-06-14T14:18:14;7.90;;;2.70;;
5351;SDS011;2698;51.454;6.736;2023-06-14T14:20:41;21.23;;;3.10;;
5351;SDS011;2698;51.454;6.736;2023-06-14T14:23:08;9.07;;;2.80;;
5351;SDS011;2698;51.454;6.736;2023-06-14T14:25:35;4.30;;;2.80;;
5351;SDS011;2698;51.454;6.736;2023-06-14T14:28:03;3.17;;;2.50;;
5351;SDS011;2698;51.454;6.736;2023-06-14T14:30:31;9.40;;;3.10;;
5351;SDS011;2698;51.454;6.736;2023-06-14T14:32:58;7.50;;;4.73;;
5351;SDS011;2698;51.454;6.736;2023-06-14T14:35:26;17.50;;;3.80;;
5351;SDS011;2698;51.454;6.736;2023-06-14T14:37:55;3.20;;;2.90;;
5351;SDS011;2698;51.454;6.736;2023-06-14T14:40:22;2.70;;;2.50;;
5351;SDS011;2698;51.454;6.736;2023-06-14T14:42:50;11.90;;;3.43;;
5351;SDS011;2698;51.454;6.736;2023-06-14T14:45:17;7.17;;;2.90;;
5351;SDS011;2698;51.454;6.736;2023-06-14T14:47:45;20.20;;;4.17;;
5351;SDS011;2698;51.454;6.736;2023-06-14T14:50:12;9.40;;;3.27;;
5351;SDS011;2698;51.454;6.736;2023-06-14T14:52:39;4.57;;;3.90;;
5351;SDS011;2698;51.454;6.736;2023-06-14T14:55:07;5.90;;;3.97;;
5351;SDS011;2698;51.454;6.736;2023-06-14T14:57:34;9.87;;;3.57;;
5351;SDS011;2698;51.454;6.736;2023-06-14T15:00:02;13.30;;;4.30;;
5351;SDS011;2698;51.454;6.736;2023-06-14T15:02:30;6.30;;;3.27;;
5351;SDS011;2698;51.454;6.736;2023-06-14T15:04:59;9.97;;;3.20;;
5351;SDS011;2698;51.454;6.736;2023-06-14T15:07:27;14.30;;;3.43;;
5351;SDS011;2698;51.454;6.736;2023-06-14T15:09:55;5.30;;;2.37;;
5351;SDS011;2698;51.454;6.736;2023-06-14T15:12:22;2.73;;;2.53;;
5351;SDS011;2698;51.454;6.736;2023-06-14T15:14:50;4.77;;;2.50;;
5351;SDS011;2698;51.454;6.736;2023-06-14T15:17:17;4.90;;;3.00;;